createdAt,value
2019-01-13T02:54:17.569Z,22.63
2019-01-13T02:56:56.533Z,21.13
2019-01-13T03:56:35.578Z,16.93
2019-01-13T03:59:04.068Z,15.37
2019-01-13T04:01:32.547Z,19.80
2019-01-13T04:04:01.067Z,19.87
2019-01-13T04:06:29.536Z,22.00
2019-01-13T04:08:58.005Z,16.67
2019-01-13T04:11:26.431Z,17.03
2019-01-13T04:13:54.854Z,17.50
2019-01-13T04:16:23.439Z,16.03
2019-01-13T04:18:51.939Z,15.87
2019-01-13T04:21:20.499Z,12.20
2019-01-13T04:23:49.003Z,15.70
2019-01-13T04:26:17.439Z,14.30
2019-01-13T04:28:45.871Z,17.53
2019-01-13T04:31:14.672Z,15.10
2019-01-13T04:33:43.256Z,14.30
2019-01-13T04:36:11.739Z,14.03
2019-01-13T04:38:40.215Z,17.47
2019-01-13T04:41:08.791Z,14.50
2019-01-13T04:43:37.232Z,13.30
2019-01-13T04:46:05.735Z,16.43
2019-01-13T04:48:34.147Z,16.60
2019-01-13T04:51:02.583Z,14.30
2019-01-13T04:53:31.088Z,16.47
2019-01-13T04:55:59.623Z,12.87
2019-01-13T04:58:28.032Z,14.00
2019-01-13T05:00:56.523Z,12.87
2019-01-13T05:03:25.382Z,15.27
2019-01-13T05:05:53.985Z,19.13
2019-01-13T05:08:22.472Z,14.03
2019-01-13T05:10:50.997Z,15.47
2019-01-13T05:13:19.519Z,17.80
2019-01-13T05:15:47.967Z,19.60
2019-01-13T05:18:16.388Z,19.43
2019-01-13T05:20:44.821Z,16.77
2019-01-13T05:23:13.353Z,17.03
2019-01-13T05:25:42.061Z,18.92
2019-01-13T05:28:10.492Z,16.90
2019-01-13T05:30:38.989Z,16.70
2019-01-13T05:33:07.409Z,17.00
2019-01-13T05:35:35.901Z,17.07
2019-01-13T05:38:04.724Z,18.07
2019-01-13T05:40:33.237Z,18.37
2019-01-13T05:43:01.721Z,20.30
2019-01-13T05:45:30.316Z,17.60
2019-01-13T05:47:58.819Z,17.97
2019-01-13T05:50:27.384Z,17.30
2019-01-13T05:52:56.141Z,18.10
2019-01-13T05:55:24.852Z,20.67
2019-01-13T05:57:53.360Z,16.80
2019-01-13T06:00:23.216Z,17.53
2019-01-13T06:02:51.992Z,16.57
2019-01-13T06:05:20.504Z,17.13
2019-01-13T06:07:49.081Z,12.63
2019-01-13T06:10:18.635Z,13.27
2019-01-13T06:12:47.108Z,15.37
2019-01-13T06:15:16.871Z,14.83
2019-01-13T06:17:45.505Z,14.57
2019-01-13T06:20:15.212Z,12.13
2019-01-13T06:22:43.697Z,12.60
2019-01-13T06:25:12.189Z,10.30
2019-01-13T06:27:40.664Z,11.97
2019-01-13T06:30:10.573Z,11.43
2019-01-13T06:32:38.973Z,11.20
2019-01-13T06:35:07.561Z,10.47
2019-01-13T06:37:36.096Z,12.93
2019-01-13T06:40:05.305Z,9.20
2019-01-13T06:42:33.805Z,10.17
2019-01-13T06:45:02.325Z,8.67
2019-01-13T06:47:31.114Z,8.53
2019-01-13T06:49:59.510Z,7.97
2019-01-13T06:52:27.931Z,8.87
2019-01-13T06:54:56.333Z,9.00
2019-01-13T06:57:24.731Z,8.37
2019-01-13T06:59:53.154Z,9.03
2019-01-13T07:02:21.645Z,8.50
2019-01-13T07:04:50.967Z,7.77
2019-01-13T07:07:19.464Z,8.03
2019-01-13T07:09:48.155Z,8.17
2019-01-13T07:12:16.575Z,8.03
2019-01-13T07:14:45.071Z,8.00
2019-01-13T07:17:13.915Z,7.37
2019-01-13T07:19:42.327Z,8.27
2019-01-13T07:22:10.783Z,8.17
2019-01-13T07:24:39.371Z,7.87
2019-01-13T07:27:07.795Z,7.47
2019-01-13T07:29:36.295Z,8.20
2019-01-13T07:32:10.752Z,7.80
2019-01-13T07:34:35.115Z,8.80
2019-01-13T07:37:03.611Z,7.33
2019-01-13T07:39:32.376Z,7.20
2019-01-13T07:42:00.944Z,6.50
2019-01-13T07:44:29.508Z,6.33
2019-01-13T07:46:57.999Z,7.13
2019-01-13T07:49:26.584Z,7.13
2019-01-13T07:51:55.239Z,7.27
2019-01-13T07:54:23.779Z,7.03
2019-01-13T07:56:52.308Z,6.93
2019-01-13T07:59:20.801Z,7.27
2019-01-13T08:01:49.349Z,6.93
2019-01-13T08:04:17.795Z,6.03
2019-01-13T08:06:46.283Z,6.37
2019-01-13T08:09:14.744Z,6.70
2019-01-13T08:11:43.248Z,6.00
2019-01-13T08:14:12.224Z,6.07
2019-01-13T08:16:40.716Z,6.40
2019-01-13T08:19:09.219Z,6.07
2019-01-13T08:21:37.703Z,5.67
2019-01-13T08:24:06.328Z,5.87
2019-01-13T08:26:34.825Z,5.47
2019-01-13T08:29:03.384Z,4.60
2019-01-13T08:31:31.932Z,5.23
2019-01-13T08:34:00.412Z,4.70
2019-01-13T08:36:28.996Z,4.67
2019-01-13T08:38:58.024Z,4.40
2019-01-13T08:41:26.532Z,4.20
2019-01-13T08:43:55.012Z,4.83
2019-01-13T08:46:23.489Z,4.03
2019-01-13T08:48:51.928Z,3.60
2019-01-13T08:51:20.440Z,3.73
2019-01-13T08:53:48.836Z,3.47
2019-01-13T08:56:17.253Z,3.83
2019-01-13T08:58:45.700Z,3.83
2019-01-13T09:01:14.209Z,4.10
2019-01-13T09:03:43.454Z,3.03
2019-01-13T09:06:11.953Z,3.13
2019-01-13T09:08:40.752Z,3.40
2019-01-13T09:11:09.245Z,3.33
2019-01-13T09:13:37.695Z,3.13
2019-01-13T09:16:06.252Z,2.87
2019-01-13T09:18:34.849Z,3.33
2019-01-13T09:21:03.358Z,3.10
2019-01-13T09:23:32.204Z,4.47
2019-01-13T09:26:00.681Z,3.30
2019-01-13T09:28:29.164Z,3.43
2019-01-13T09:30:57.630Z,3.63
2019-01-13T09:33:26.288Z,4.07
2019-01-13T09:35:55.257Z,4.93
2019-01-13T09:38:23.750Z,4.60
2019-01-13T09:40:52.297Z,4.60
2019-01-13T09:43:20.877Z,5.77
2019-01-13T09:45:49.353Z,6.40
2019-01-13T09:48:17.821Z,4.03
2019-01-13T09:50:46.355Z,5.60
2019-01-13T09:53:14.879Z,6.50
2019-01-13T09:55:43.853Z,5.92
2019-01-13T09:58:12.330Z,6.70
2019-01-13T10:00:40.736Z,4.37
2019-01-13T10:03:09.541Z,5.23
2019-01-13T10:05:38.125Z,5.93
2019-01-13T10:08:06.753Z,4.40
2019-01-13T10:10:35.332Z,6.83
2019-01-13T10:13:03.844Z,6.93
2019-01-13T10:15:32.324Z,5.27
2019-01-13T10:18:00.840Z,6.10
2019-01-13T10:20:29.324Z,6.77
2019-01-13T10:22:57.833Z,6.73
2019-01-13T10:25:26.392Z,7.63
2019-01-13T10:27:54.912Z,7.70
2019-01-13T10:30:24.701Z,4.37
2019-01-13T10:32:55.117Z,6.07
2019-01-13T10:35:24.137Z,3.70
2019-01-13T10:37:52.729Z,4.00
2019-01-13T10:40:22.013Z,7.07
2019-01-13T10:42:50.486Z,4.90
2019-01-13T10:45:18.971Z,4.47
2019-01-13T10:47:47.573Z,5.10
2019-01-13T10:50:17.197Z,4.27
2019-01-13T10:52:45.845Z,4.17
2019-01-13T10:55:15.162Z,3.17
2019-01-13T10:57:44.009Z,4.50
2019-01-13T11:00:15.065Z,3.57
2019-01-13T11:02:44.306Z,3.97
2019-01-13T11:05:12.782Z,2.87
2019-01-13T11:07:41.554Z,4.60
2019-01-13T11:10:10.878Z,2.50
2019-01-13T11:12:39.453Z,4.07
2019-01-13T11:15:07.998Z,3.83
2019-01-13T11:17:36.482Z,3.37
2019-01-13T11:20:05.926Z,2.83
2019-01-13T11:22:34.535Z,2.70
2019-01-13T11:25:03.102Z,2.50
2019-01-13T11:27:31.710Z,2.43
2019-01-13T11:30:00.265Z,2.50
2019-01-13T11:32:28.749Z,1.77
2019-01-13T11:34:57.247Z,3.73
2019-01-13T11:37:25.747Z,2.13
2019-01-13T11:39:54.210Z,4.57
2019-01-13T11:42:22.683Z,2.30
2019-01-13T11:44:51.231Z,2.37
2019-01-13T11:47:19.762Z,3.00
2019-01-13T11:49:48.188Z,2.40
2019-01-13T11:52:16.944Z,1.70
2019-01-13T11:54:45.430Z,2.50
2019-01-13T11:57:13.927Z,2.07
2019-01-13T11:59:42.414Z,2.30
2019-01-13T12:02:10.910Z,2.47
2019-01-13T12:04:39.315Z,2.23
2019-01-13T12:07:07.815Z,1.73
2019-01-13T12:09:36.327Z,3.23
2019-01-13T12:12:04.843Z,2.20
2019-01-13T12:14:33.331Z,3.27
2019-01-13T12:17:01.841Z,2.53
2019-01-13T12:19:30.334Z,2.87
2019-01-13T12:21:58.835Z,3.27
2019-01-13T12:24:27.352Z,2.33
2019-01-13T12:26:56.273Z,2.57
2019-01-13T12:29:24.864Z,2.50
2019-01-13T12:31:53.383Z,2.60
2019-01-13T12:34:21.896Z,2.27
2019-01-13T12:36:50.463Z,1.77
2019-01-13T12:39:18.991Z,1.70
2019-01-13T12:41:47.695Z,2.30
2019-01-13T12:44:16.448Z,2.50
2019-01-13T12:46:44.956Z,3.07
2019-01-13T12:49:13.561Z,3.53
2019-01-13T12:51:42.139Z,2.57
2019-01-13T12:54:10.651Z,2.33
2019-01-13T12:56:39.169Z,2.30
2019-01-13T12:59:07.639Z,2.17
2019-01-13T13:01:36.135Z,2.17
2019-01-13T13:04:04.737Z,2.53
2019-01-13T13:06:33.307Z,3.50
2019-01-13T13:09:01.813Z,2.53
2019-01-13T13:11:30.311Z,2.97
2019-01-13T13:13:58.799Z,2.93
2019-01-13T13:16:27.363Z,2.80
2019-01-13T13:18:55.856Z,3.30
2019-01-13T13:21:24.287Z,2.43
2019-01-13T13:23:52.877Z,3.03
2019-01-13T13:26:21.443Z,2.80
2019-01-13T13:28:50.072Z,2.83
2019-01-13T13:31:18.871Z,3.23
2019-01-13T13:33:47.423Z,2.97
2019-01-13T13:36:16.019Z,4.03
2019-01-13T13:38:45.005Z,4.57
2019-01-13T13:41:13.648Z,3.60
2019-01-13T13:43:41.383Z,3.87
2019-01-13T13:46:09.868Z,3.00
2019-01-13T13:48:38.396Z,3.80
2019-01-13T13:51:06.911Z,4.53
2019-01-13T13:53:35.483Z,4.27
2019-01-13T13:56:04.080Z,3.90
2019-01-13T13:58:32.572Z,5.40
2019-01-13T14:01:01.060Z,5.27
2019-01-13T14:03:29.560Z,5.67
2019-01-13T14:05:58.079Z,4.83
2019-01-13T14:08:26.608Z,4.03
2019-01-13T14:10:55.720Z,4.87
2019-01-13T14:13:24.744Z,5.40
2019-01-13T14:15:53.784Z,4.62
2019-01-13T14:18:22.744Z,3.40
2019-01-13T14:20:51.728Z,5.83
2019-01-13T14:23:20.848Z,4.37
2019-01-13T14:25:49.876Z,5.77
2019-01-13T14:28:18.889Z,4.77
2019-01-13T14:30:47.956Z,3.07
2019-01-13T14:33:16.996Z,5.13
2019-01-13T14:35:45.996Z,4.53
2019-01-13T14:38:15.156Z,6.50
2019-01-13T14:40:44.192Z,5.83
2019-01-13T14:43:13.248Z,4.57
2019-01-13T14:45:42.296Z,4.60
2019-01-13T14:48:11.608Z,4.37
2019-01-13T14:50:40.968Z,4.20
2019-01-13T14:53:10.024Z,3.83
2019-01-13T14:55:39.272Z,3.20
2019-01-13T14:58:08.308Z,5.17
2019-01-13T15:00:37.353Z,7.17
2019-01-13T15:03:06.590Z,6.63
2019-01-13T15:05:35.657Z,8.73
2019-01-13T15:08:04.779Z,9.37
2019-01-13T15:10:33.824Z,9.00
2019-01-13T15:13:03.236Z,12.47
2019-01-13T15:15:31.733Z,15.27
2019-01-13T15:18:00.261Z,13.97
2019-01-13T15:20:28.735Z,10.83
2019-01-13T15:22:57.286Z,14.43
2019-01-13T15:25:26.938Z,14.73
2019-01-13T15:27:55.473Z,10.30
2019-01-13T15:30:25.173Z,17.13
2019-01-13T15:32:53.643Z,11.70
2019-01-13T15:35:22.153Z,12.80
2019-01-13T15:37:50.625Z,12.57
2019-01-13T15:40:19.309Z,12.97
2019-01-13T15:42:47.913Z,17.53
2019-01-13T15:45:16.441Z,12.77
2019-01-13T15:47:45.685Z,13.97
2019-01-13T15:50:15.485Z,12.43
2019-01-13T15:52:44.341Z,19.70
2019-01-13T15:55:12.837Z,11.70
2019-01-13T15:57:41.337Z,15.07
2019-01-13T16:00:14.381Z,12.60
2019-01-13T16:02:42.913Z,11.87
2019-01-13T16:05:11.401Z,15.20
2019-01-13T16:07:39.822Z,11.23
2019-01-13T16:10:10.365Z,18.83
2019-01-13T16:12:38.861Z,12.07
2019-01-13T16:15:08.062Z,11.60
2019-01-13T16:17:36.542Z,10.43
2019-01-13T16:20:07.094Z,6.60
2019-01-13T16:22:35.586Z,7.50
2019-01-13T16:25:04.904Z,11.93
2019-01-13T16:27:33.433Z,11.30
2019-01-13T16:30:01.918Z,13.53
2019-01-13T16:32:30.407Z,14.53
2019-01-13T16:34:58.889Z,10.73
2019-01-13T16:37:27.382Z,11.33
2019-01-13T16:39:56.092Z,9.07
2019-01-13T16:42:24.578Z,11.20
2019-01-13T16:44:52.986Z,6.80
2019-01-13T16:47:21.482Z,10.17
2019-01-13T16:49:49.974Z,11.60
2019-01-13T16:52:37.590Z,8.00
2019-01-13T17:01:09.515Z,9.00
2019-01-13T17:07:04.083Z,8.57
2019-01-13T17:09:51.695Z,10.07
2019-01-13T17:12:39.318Z,8.13
2019-01-13T17:15:27.333Z,11.73
2019-01-13T17:18:14.943Z,10.27
2019-01-13T17:21:02.567Z,10.40
2019-01-13T17:23:50.179Z,9.70
2019-01-13T17:26:38.147Z,16.33
2019-01-13T17:29:25.791Z,9.03
2019-01-13T17:32:13.403Z,16.77
2019-01-13T17:35:01.055Z,10.80
2019-01-13T17:37:48.737Z,10.73
2019-01-13T17:40:36.363Z,10.00
2019-01-13T17:43:23.993Z,17.73
2019-01-13T17:46:11.672Z,13.03
2019-01-13T17:48:59.268Z,10.70
2019-01-13T17:51:46.899Z,13.20
2019-01-13T17:54:34.551Z,13.60
2019-01-13T20:26:11.245Z,7.83
2019-01-13T20:28:58.929Z,8.67
2019-01-13T20:31:46.558Z,3.93
2019-01-13T20:34:34.157Z,4.23
2019-01-13T20:37:21.845Z,5.23
2019-01-13T20:39:50.628Z,6.30
2019-01-13T20:42:38.258Z,5.17
2019-01-13T20:45:25.871Z,7.57
2019-01-13T20:48:13.498Z,6.03
2019-01-13T20:51:01.094Z,10.57
2019-01-13T20:53:48.721Z,8.73
2019-01-13T20:56:36.347Z,14.30
2019-01-13T22:01:59.250Z,15.77
2019-01-13T22:49:43.972Z,15.63
2019-01-13T22:52:31.588Z,18.03
2019-01-13T22:55:19.580Z,15.53
2019-01-13T22:58:07.684Z,16.77
2019-01-13T23:12:48.351Z,18.67
2019-01-13T23:15:36.004Z,17.60
2019-01-13T23:18:23.685Z,15.37
2019-01-13T23:21:11.312Z,16.93
2019-01-13T23:23:58.912Z,15.67
2019-01-13T23:26:46.532Z,14.97
2019-01-13T23:32:40.942Z,13.10
2019-01-13T23:35:09.415Z,11.80
2019-01-13T23:37:57.033Z,18.93
2019-01-13T23:40:44.633Z,16.83
2019-01-13T23:43:32.265Z,11.90
2019-01-13T23:46:19.868Z,11.37
2019-01-13T23:49:08.206Z,11.97
2019-01-13T23:51:55.809Z,7.93
2019-01-13T23:57:36.627Z,8.27
